Aérodrome :
LOGIN :

S'inscrire | Disclaimer

   EN    FR    IT 

 










Légende :    VFR   VFR Marginal   IFR   IFR Intensif   IFR Très Intensif
Visi : 
Plafond : 
>= 8 km
>= 3000ft
5 à 8 km
1000 à 3000 ft
1500m à 5 km
500 à 1000 ft
800 à 1500m
200 à 500 ft
< 800m
< 200 ft
Symboles :   Orages  Brouillard  Fortes neiges  Fortes précipitations  Vent > 20 kt
SIGMETs :   Divers  Orages  Givrage  Turbulence  Onde Orograph.  Cendres Volcan.






- Altitude de l'aérodrome : 1455 ft


ETIH - Hohenfels Army Air Field

DERNIER METAR :
  • 240756Z AUTO 14003KT 9999 OVC006 03/02 A3036 RMK AO2 SLP304 T00270018

METARs EXPIRÉS :
  • 240731Z AUTO 12004KT 8000 BR OVC006 03/02 A3036 RMK AO2 SLP304 $
  • 240706Z AUTO 12005KT 9999 OVC007 03/02 A3036 RMK AO2 SLP302 $
  • 240656Z AUTO 12003KT 9000 BR OVC006 03/02 A3036 RMK AO2 SLP302 T00290020 $
  • 240646Z AUTO 00000KT 5000 BR OVC006 03/02 A3036 RMK AO2 SLP302 $
  • 240636Z AUTO 00000KT 3200 BR OVC006 03/02 A3036 RMK AO2 CIG 004V006 SLP300 $
  • 240626Z AUTO 00000KT 3200 BR OVC004 03/02 A3036 RMK AO2 VIS 2200V3200 CIG 002V004 SLP300 $
  • 240556Z AUTO 10003KT 2600 BR OVC002 03/02 A3036 RMK AO2 SLP300 T00290020 10029 20016 55005 $
  • 240541Z AUTO 11003KT 3000 BR OVC002 03/02 A3036 RMK AO2 SLP300 $

Prévision TAF périmée.



MET'MAP, la Météo Aéronautique d'un coup d'oeil ! - Copyright ORBIFLY Décembre 2007 - Disclaimer

ORBIFLY MET'MAP TEAM :

Programmation & Développement : Alexandra Zaïnal
Sur une idée originale de : Baudouin d'Aumeries
Assistance à la programmation : Marc-Olivier Méhu
Soutien technique & logistique : Manuel Goepfert

Contact : metmap@orbifly.com




SOURCES & CREDITS :

   NOAA